Time;durP1;ratioP1;P1;durP2;ratioP2;P2;SDS_P1;SDS_P2;PMS_P1;PMS_P2;Temp;Humidity;BMP_temperature;BMP_pressure;BME280_temperature;BME280_humidity;BME280_pressure;Samples;Min_cycle;Max_cycle;Signal;HPM_P1;HPM_P2
2022/08/27 00:02:21;;;;;;;9.50;4.90;;;;;;;18.57;69.82;98159.50;109489;1281;1016388;-75
2022/08/27 00:08:11;;;;;;;6.00;4.10;;;;;;;18.49;70.14;98163.98;109557;1280;1016123;-75
2022/08/27 00:13:33;;;;;;;;;;;;;;;18.39;70.34;98166.55;109549;1277;1016540;-75
2022/08/27 00:18:38;;;;;;;8.60;5.70;;;;;;;18.29;70.48;98166.80;109738;1277;1019091;-75
2022/08/27 00:24:12;;;;;;;14.90;5.20;;;;;;;18.22;70.66;98161.08;110054;1278;1017716;-75
2022/08/27 00:30:00;;;;;;;9.20;4.70;;;;;;;18.18;70.80;98162.06;109194;1284;1016532;-74
2022/08/27 00:35:25;;;;;;;7.70;5.70;;;;;;;18.17;70.88;98167.31;109181;1282;1017002;-74
2022/08/27 00:40:34;;;;;;;8.80;4.80;;;;;;;18.18;71.08;98171.52;109253;1282;1016709;-75
2022/08/27 00:46:19;;;;;;;8.50;5.20;;;;;;;18.13;71.11;98172.98;109158;1282;1016382;-74
2022/08/27 00:52:59;;;;;;;8.80;5.80;;;;;;;18.03;71.28;98174.91;109411;1283;1016606;-74
2022/08/27 00:58:53;;;;;;;7.70;5.00;;;;;;;17.90;71.47;98164.23;109643;1280;1016796;-74
2022/08/27 01:04:01;;;;;;;11.00;5.10;;;;;;;17.83;71.66;98163.83;109801;1277;1017092;-74
2022/08/27 01:09:34;;;;;;;9.50;5.70;;;;;;;17.77;71.70;98164.22;109803;1277;1016763;-75
2022/08/27 01:15:38;;;;;;;8.30;4.80;;;;;;;17.73;71.89;98166.67;109387;1280;1018621;-74
2022/08/27 01:21:58;;;;;;;;;;;;;;;;;;;;;
2022/08/27 01:28:41;;;;;;;6.10;4.10;;;;;;;17.69;71.70;98159.46;109144;1284;1017006;-73
2022/08/27 01:34:19;;;;;;;8.00;4.00;;;;;;;17.75;71.67;98160.67;109309;1284;1016644;-75
2022/08/27 01:39:57;;;;;;;8.70;5.10;;;;;;;17.77;71.65;98172.17;109314;1284;1016472;-74
2022/08/27 01:45:34;;;;;;;11.20;5.20;;;;;;;17.76;71.69;98175.56;106945;1280;6383479;-74
2022/08/27 01:51:09;;;;;;;8.10;5.00;;;;;;;17.71;71.91;98178.86;109625;1276;1015961;-74
2022/08/27 01:57:12;;;;;;;9.10;5.00;;;;;;;17.61;72.08;98178.22;109780;1278;1016087;-76
2022/08/27 02:02:28;;;;;;;9.50;5.10;;;;;;;17.53;72.19;98180.28;109608;1278;1016913;-74
2022/08/27 02:07:37;;;;;;;8.50;4.80;;;;;;;17.47;72.42;98178.66;109670;1280;1017068;-74
2022/08/27 02:12:52;;;;;;;9.90;5.10;;;;;;;17.41;72.54;98175.55;109501;1280;1016536;-74
2022/08/27 02:18:18;;;;;;;9.40;4.70;;;;;;;17.35;72.70;98170.00;109655;1280;1016537;-74
2022/08/27 02:24:20;;;;;;;5.40;4.10;;;;;;;17.27;72.85;98169.19;109718;1280;1016361;-74
2022/08/27 02:29:50;;;;;;;6.10;4.50;;;;;;;17.21;72.92;98169.34;109829;1277;1016693;-74
2022/08/27 02:35:41;;;;;;;6.50;4.60;;;;;;;17.19;73.08;98170.98;109483;1280;1016641;-75
2022/08/27 02:41:35;;;;;;;;;;;;;;;;;;;;;
2022/08/27 02:47:20;;;;;;;;;;;;;;;;;;;;;
2022/08/27 02:53:04;;;;;;;;;;;;;;;;;;;;;
2022/08/27 02:58:26;;;;;;;9.90;5.50;;;;;;;17.12;73.60;98152.70;109384;1282;1016811;-73
2022/08/27 03:03:34;;;;;;;9.80;4.90;;;;;;;17.04;73.72;98148.41;109529;1279;1016454;-74
2022/08/27 03:08:54;;;;;;;10.50;4.90;;;;;;;16.98;73.74;98146.08;109386;1280;1016387;-74
2022/08/27 03:14:16;;;;;;;9.20;5.40;;;;;;;16.94;73.76;98148.30;109715;1277;1016801;-76
2022/08/27 03:20:10;;;;;;;;;;;;;;;;;;;;;
2022/08/27 03:26:09;;;;;;;10.80;5.70;;;;;;;16.84;74.11;98151.19;109819;1277;1018332;-74
2022/08/27 03:31:36;;;;;;;8.10;4.90;;;;;;;16.79;74.23;98150.20;109807;1277;1016550;-73
2022/08/27 03:37:02;;;;;;;12.00;5.70;;;;;;;16.74;74.49;98146.34;109782;1277;1017053;-75
2022/08/27 03:42:29;;;;;;;7.90;5.40;;;;;;;16.71;74.62;98134.29;109666;1278;1016482;-74
2022/08/27 03:47:51;;;;;;;10.20;5.60;;;;;;;16.68;74.85;98130.05;109854;1276;1015808;-74
2022/08/27 03:53:46;;;;;;;10.50;6.00;;;;;;;16.67;75.09;98125.67;109781;1276;1018556;-73
2022/08/27 03:59:15;;;;;;;9.30;5.50;;;;;;;16.65;75.16;98137.42;109741;1276;1016745;-74
2022/08/27 04:04:47;;;;;;;8.70;6.30;;;;;;;16.63;75.49;98139.32;109841;1276;1016599;-74
2022/08/27 04:10:31;;;;;;;;;;;;;;;;;;;;;
2022/08/27 04:16:00;;;;;;;7.60;5.50;;;;;;;16.59;75.84;98154.59;109913;1277;1017011;-73
2022/08/27 04:21:31;;;;;;;11.80;6.40;;;;;;;16.58;75.93;98152.79;109835;1277;1016094;-74
2022/08/27 04:27:04;;;;;;;;;;;;;;;;;;;;;
2022/08/27 04:33:27;;;;;;;14.50;6.30;;;;;;;16.63;76.25;98150.30;109567;1280;1016692;-74
2022/08/27 04:46:53;;;;;;;14.60;7.90;;;;;;;16.69;76.72;98192.87;109472;1281;1018809;-74
2022/08/27 04:53:12;;;;;;;;;;;;;;;;;;;;;
2022/08/27 05:05:07;;;;;;;;;;;;;;;;;;;;;
2022/08/27 05:11:34;;;;;;;15.50;7.00;;;;;;;17.15;77.66;98191.98;109756;1276;1016648;-73
2022/08/27 05:17:30;;;;;;;;;;;;;;;;;;;;;
2022/08/27 05:24:34;;;;;;;12.50;6.20;;;;;;;17.47;77.57;98216.11;109797;1275;1016562;-74
2022/08/27 05:30:12;;;;;;;9.30;6.10;;;;;;;17.62;77.25;98218.41;109768;1278;1016660;-74
2022/08/27 05:35:42;;;;;;;12.80;7.70;;;;;;;17.72;77.02;98220.89;109758;1278;1016556;-74
2022/08/27 05:41:01;;;;;;;11.30;7.60;;;;;;;17.80;76.86;98218.09;109922;1278;1016386;-75
2022/08/27 05:46:38;;;;;;;13.80;6.90;;;;;;;17.99;77.02;98205.15;109550;1281;1018311;-73
2022/08/27 05:51:52;;;;;;;10.40;6.70;;;;;;;18.24;76.94;98203.80;109420;1281;1016036;-74
2022/08/27 05:57:20;;;;;;;12.20;7.10;;;;;;;18.52;76.57;98209.73;109197;1284;1017859;-74
2022/08/27 06:02:29;;;;;;;16.30;6.90;;;;;;;18.80;76.31;98207.39;109434;1283;1016735;-74
2022/08/27 06:08:06;;;;;;;13.50;7.20;;;;;;;19.07;75.78;98200.66;109421;1283;1018724;-74
2022/08/27 06:13:32;;;;;;;10.30;6.90;;;;;;;19.28;75.53;98199.63;109279;1284;1018232;-74
2022/08/27 06:18:56;;;;;;;;;;;;;;;;;;;;;
2022/08/27 06:24:38;;;;;;;12.50;6.70;;;;;;;19.71;75.44;98205.95;109537;1277;1016645;-74
2022/08/27 06:29:49;;;;;;;12.40;6.40;;;;;;;19.89;75.10;98207.52;109718;1277;1016319;-74
2022/08/27 06:34:52;;;;;;;14.00;7.30;;;;;;;20.06;75.22;98205.30;109886;1277;1017217;-74
2022/08/27 06:40:15;;;;;;;11.50;7.20;;;;;;;20.22;74.97;98210.20;109880;1278;1017149;-74
2022/08/27 06:45:25;;;;;;;10.40;6.80;;;;;;;20.40;75.05;98217.05;109702;1277;1019656;-74
2022/08/27 06:50:28;;;;;;;11.80;7.20;;;;;;;20.53;74.65;98216.05;109875;1277;1016597;-74
2022/08/27 06:55:49;;;;;;;14.30;7.90;;;;;;;20.70;74.61;98220.41;109705;1277;1018169;-75
2022/08/27 07:01:21;;;;;;;12.80;7.00;;;;;;;20.90;74.19;98225.89;109781;1277;1016710;-75
2022/08/27 07:07:16;;;;;;;12.40;7.50;;;;;;;21.08;73.86;98224.38;109458;1284;1017828;-74
2022/08/27 07:13:02;;;;;;;10.80;7.20;;;;;;;21.33;73.73;98239.83;109803;1283;1018668;-76
2022/08/27 07:18:04;;;;;;;14.00;7.80;;;;;;;21.54;73.66;98241.37;109755;1284;1016898;-74
2022/08/27 07:23:18;;;;;;;9.60;8.10;;;;;;;21.67;73.34;98247.66;109690;1282;1016569;-75
2022/08/27 07:28:28;;;;;;;15.80;7.90;;;;;;;21.78;73.18;98248.15;109564;1281;1016687;-76
2022/08/27 07:33:43;;;;;;;16.80;8.80;;;;;;;21.98;72.99;98251.42;110334;1281;1016512;-75
2022/08/27 07:39:14;;;;;;;16.80;9.40;;;;;;;22.22;72.90;98255.75;110635;1279;1016210;-76
2022/08/27 07:44:26;;;;;;;13.50;8.60;;;;;;;22.38;72.31;98255.56;109767;1277;1016666;-75
2022/08/27 07:49:51;;;;;;;14.30;8.90;;;;;;;22.57;72.20;98263.41;109863;1276;1018326;-76
2022/08/27 07:55:08;;;;;;;12.70;9.80;;;;;;;22.72;71.97;98263.71;110160;1277;1016272;-76
2022/08/27 08:00:27;;;;;;;13.40;8.90;;;;;;;22.96;71.70;98252.38;110787;1277;1018019;-76
2022/08/27 08:05:32;;;;;;;16.20;10.80;;;;;;;23.15;71.56;98255.02;109974;1277;1017141;-75
2022/08/27 08:10:39;;;;;;;13.10;10.10;;;;;;;23.39;71.45;98260.96;110741;1277;1017734;-76
2022/08/27 08:15:55;;;;;;;16.70;10.90;;;;;;;23.65;71.41;98272.18;109851;1277;1017862;-76
2022/08/27 08:21:22;;;;;;;;;;;;;;;;;;;;;
2022/08/27 08:26:46;;;;;;;17.10;10.70;;;;;;;24.03;69.21;98299.52;110251;1277;1017328;-77
2022/08/27 08:31:54;;;;;;;14.50;10.30;;;;;;;24.27;69.55;98305.92;110955;1277;1018298;-78
2022/08/27 08:37:03;;;;;;;14.30;10.70;;;;;;;24.45;69.37;98304.44;110830;1277;1016923;-78
2022/08/27 08:42:50;;;;;;;14.40;10.30;;;;;;;24.67;69.40;98301.44;110923;1277;1016586;-77
2022/08/27 08:48:33;;;;;;;12.60;11.30;;;;;;;24.85;68.35;98308.98;110144;1276;1018203;-80
2022/08/27 08:54:06;;;;;;;12.10;9.60;;;;;;;25.00;67.74;98317.56;110469;1276;1016501;-76
2022/08/27 08:59:49;;;;;;;14.60;11.40;;;;;;;25.06;67.14;98329.45;110068;1277;1018171;-75
2022/08/27 09:05:06;;;;;;;18.50;11.10;;;;;;;25.26;67.10;98330.78;109979;1277;1016876;-77
2022/08/27 09:10:41;;;;;;;13.30;10.30;;;;;;;25.69;66.52;98333.73;110557;1279;1016191;-75
2022/08/27 09:16:04;;;;;;;15.30;11.10;;;;;;;26.06;65.86;98339.55;110040;1276;1016678;-76
2022/08/27 09:22:08;;;;;;;;;;;;;;;;;;;;;
2022/08/27 09:27:41;;;;;;;;;;;;;;;;;;;;;
2022/08/27 09:33:06;;;;;;;12.30;10.50;;;;;;;26.92;64.28;98339.30;109888;1276;1018758;-76
2022/08/27 09:39:22;;;;;;;12.30;9.70;;;;;;;27.07;64.03;98343.67;109843;1276;1016636;-84
2022/08/27 09:44:50;;;;;;;14.50;10.50;;;;;;;27.11;63.58;98341.44;110298;1276;1016726;-77
2022/08/27 09:50:47;;;;;;;8.90;7.50;;;;;;;27.15;63.07;98338.55;110361;1276;1016671;-81
2022/08/27 09:56:24;;;;;;;10.90;7.70;;;;;;;27.23;62.97;98331.71;110303;1276;1016477;-78
2022/08/27 10:02:13;;;;;;;8.20;6.60;;;;;;;27.28;62.63;98329.44;110703;1279;1019567;-77
2022/08/27 10:08:56;;;;;;;6.00;5.10;;;;;;;27.35;60.91;98327.34;110307;1276;1017120;-74
2022/08/27 10:15:16;;;;;;;;;;;;;;;;;;;;;
2022/08/27 10:20:41;;;;;;;7.60;4.70;;;;;;;27.43;58.93;98322.21;110336;1280;1016671;-76
2022/08/27 10:25:55;;;;;;;8.20;5.40;;;;;;;27.51;58.10;98316.61;110397;1280;1016511;-76
2022/08/27 10:31:24;;;;;;;;;;;;;;;;;;;;;
2022/08/27 10:36:41;;;;;;;4.20;3.80;;;;;;;27.45;57.33;98309.45;109638;1281;1017899;-77
2022/08/27 10:42:02;;;;;;;13.00;9.70;;;;;;;27.34;56.31;98302.67;110007;1281;1016593;-77
2022/08/27 10:47:20;;;;;;;7.80;4.60;;;;;;;27.32;56.23;98300.64;109978;1276;1016250;-76
2022/08/27 10:52:47;;;;;;;6.50;4.30;;;;;;;27.25;55.95;98296.41;110680;1277;1018314;-74
2022/08/27 10:58:28;;;;;;;8.30;4.30;;;;;;;27.17;56.00;98302.16;109891;1276;1016979;-75
2022/08/27 11:03:44;;;;;;;5.40;4.40;;;;;;;27.17;55.85;98295.41;109609;1278;1016656;-75
2022/08/27 11:08:56;;;;;;;8.20;4.50;;;;;;;27.26;55.65;98285.23;109593;1277;1019124;-74
2022/08/27 11:14:07;;;;;;;8.50;4.60;;;;;;;27.39;55.38;98279.67;109642;1277;1018572;-74
2022/08/27 11:19:39;;;;;;;6.10;4.20;;;;;;;27.80;54.89;98284.13;109961;1277;1016561;-74
2022/08/27 11:24:56;;;;;;;4.00;3.60;;;;;;;28.31;55.29;98280.09;109632;1277;1016431;-73
2022/08/27 11:30:07;;;;;;;6.40;4.20;;;;;;;28.73;54.46;98272.67;109776;1277;1016783;-75
2022/08/27 11:35:43;;;;;;;6.90;4.50;;;;;;;28.85;53.50;98268.17;109705;1277;1016398;-73
2022/08/27 11:41:53;;;;;;;8.70;4.30;;;;;;;28.76;52.79;98268.58;109510;1279;1016535;-73
2022/08/27 11:47:09;;;;;;;7.30;4.70;;;;;;;28.53;51.45;98274.90;109713;1277;1016447;-74
2022/08/27 11:52:24;;;;;;;6.10;3.80;;;;;;;28.38;51.17;98273.20;109827;1276;1016287;-74
2022/08/27 11:57:36;;;;;;;5.80;4.10;;;;;;;28.15;51.41;98264.77;109693;1276;1016631;-74
2022/08/27 12:02:39;;;;;;;3.90;3.40;;;;;;;27.97;51.37;98253.35;109500;1276;1018065;-75
2022/08/27 12:08:02;;;;;;;;;;;;;;;;;;;;;
2022/08/27 12:13:36;;;;;;;5.10;3.40;;;;;;;27.39;50.85;98251.85;109637;1279;1015812;-76
2022/08/27 12:18:52;;;;;;;4.40;4.00;;;;;;;27.22;51.79;98252.23;109579;1277;1016517;-75
2022/08/27 12:24:19;;;;;;;4.90;4.00;;;;;;;27.15;52.67;98257.27;110096;1276;1016532;-75
2022/08/27 12:29:45;;;;;;;6.00;5.10;;;;;;;27.03;53.59;98260.73;109773;1276;1018661;-76
2022/08/27 12:35:12;;;;;;;7.20;5.60;;;;;;;26.92;54.69;98263.98;110075;1276;1016568;-74
2022/08/27 12:40:28;;;;;;;;;;;;;;;26.87;55.36;98261.92;109805;1276;1016209;-74
2022/08/27 12:46:01;;;;;;;9.20;6.50;;;;;;;26.79;55.77;98254.56;109782;1276;1016079;-75
2022/08/27 12:51:21;;;;;;;21.50;19.10;;;;;;;26.78;56.58;98254.02;109916;1276;1017043;-74
2022/08/27 12:56:45;;;;;;;19.90;17.50;;;;;;;26.72;56.74;98250.09;109666;1277;1016716;-75
2022/08/27 13:02:08;;;;;;;9.40;5.30;;;;;;;26.73;57.35;98246.70;109742;1276;1016267;-75
2022/08/27 13:07:11;;;;;;;8.60;5.00;;;;;;;26.86;57.63;98241.36;109826;1277;1016496;-74
2022/08/27 13:12:16;;;;;;;6.40;4.80;;;;;;;26.94;57.52;98235.77;109749;1276;1018855;-73
2022/08/27 13:17:24;;;;;;;6.30;5.50;;;;;;;26.96;56.54;98238.96;110006;1277;1019070;-74
2022/08/27 13:23:07;;;;;;;8.40;6.70;;;;;;;26.91;55.73;98232.28;109454;1281;1016605;-74
2022/08/27 13:28:34;;;;;;;;;;;;;;;;;;;;;
2022/08/27 13:34:02;;;;;;;4.20;3.80;;;;;;;27.03;53.71;98227.03;109423;1281;1016734;-74
2022/08/27 13:39:10;;;;;;;4.40;4.00;;;;;;;27.10;52.33;98227.95;109481;1281;1017611;-74
2022/08/27 13:44:37;;;;;;;4.70;3.90;;;;;;;27.16;53.02;98225.77;105317;1276;11371898;-73
2022/08/27 13:49:50;;;;;;;5.80;4.30;;;;;;;27.26;53.77;98227.28;109614;1277;1016730;-74
2022/08/27 13:55:49;;;;;;;;;;;;;;;27.46;54.61;98225.45;109722;1278;1016417;-74
2022/08/27 14:01:14;;;;;;;13.30;6.00;;;;;;;27.60;54.93;98226.42;109659;1277;1017145;-74
2022/08/27 14:06:45;;;;;;;8.60;5.30;;;;;;;27.68;55.01;98231.32;109634;1278;1016826;-73
2022/08/27 14:12:02;;;;;;;6.70;5.10;;;;;;;27.79;55.18;98230.36;109412;1277;1016646;-74
2022/08/27 14:17:07;;;;;;;7.00;4.70;;;;;;;27.81;54.58;98229.08;109560;1277;1015869;-73
2022/08/27 14:22:10;;;;;;;6.80;4.60;;;;;;;27.79;54.39;98229.48;109481;1278;1016386;-74
2022/08/27 14:27:15;;;;;;;5.40;4.90;;;;;;;27.79;54.48;98230.45;109585;1278;1016861;-74
2022/08/27 14:32:19;;;;;;;5.50;4.80;;;;;;;27.95;55.00;98229.86;109836;1278;1016360;-74
2022/08/27 14:37:22;;;;;;;6.50;4.70;;;;;;;28.08;54.42;98233.92;109593;1277;1016529;-74
2022/08/27 14:42:27;;;;;;;5.50;4.80;;;;;;;28.08;53.60;98236.35;109669;1277;1018863;-73
2022/08/27 14:47:37;;;;;;;7.20;4.90;;;;;;;28.16;54.34;98226.55;109587;1278;1017705;-73
2022/08/27 14:52:40;;;;;;;8.70;5.20;;;;;;;28.38;53.93;98231.11;109851;1276;1016516;-74
2022/08/27 14:57:49;;;;;;;8.50;4.60;;;;;;;28.59;53.41;98229.06;109789;1276;1018028;-75
2022/08/27 15:02:58;;;;;;;10.70;4.90;;;;;;;28.82;53.23;98226.36;109706;1276;1016828;-73
2022/08/27 15:08:11;;;;;;;7.70;5.00;;;;;;;28.92;52.23;98223.38;109626;1276;1019529;-74
2022/08/27 15:13:30;;;;;;;7.30;4.50;;;;;;;28.86;51.53;98222.72;109804;1276;1018284;-73
2022/08/27 15:18:48;;;;;;;7.20;4.50;;;;;;;28.66;50.80;98223.84;109669;1276;1018170;-74
2022/08/27 15:24:18;;;;;;;5.10;3.80;;;;;;;28.41;50.92;98219.70;109708;1276;1016730;-74
2022/08/27 15:29:20;;;;;;;8.40;4.20;;;;;;;28.20;51.05;98216.10;109767;1276;1016723;-74
2022/08/27 15:34:22;;;;;;;5.10;4.00;;;;;;;28.02;51.33;98216.48;109705;1276;1018771;-75
2022/08/27 15:39:28;;;;;;;5.60;3.90;;;;;;;27.87;51.89;98219.92;109860;1276;1016423;-74
2022/08/27 15:44:39;;;;;;;6.30;4.60;;;;;;;27.71;52.81;98224.98;109714;1276;1016095;-74
2022/08/27 15:49:48;;;;;;;7.10;4.70;;;;;;;27.54;53.32;98230.99;109735;1276;1016530;-74
2022/08/27 15:55:12;;;;;;;8.20;4.60;;;;;;;27.43;53.84;98231.85;109722;1276;1016248;-75
2022/08/27 16:00:48;;;;;;;4.30;3.90;;;;;;;27.18;53.79;98233.35;109747;1276;1016486;-73
2022/08/27 16:06:04;;;;;;;7.50;4.50;;;;;;;26.99;54.38;98233.52;110072;1276;1016518;-74
2022/08/27 16:11:07;;;;;;;6.10;5.10;;;;;;;26.96;54.96;98229.86;109808;1276;1017375;-73
2022/08/27 16:16:10;;;;;;;4.80;3.90;;;;;;;27.01;55.80;98226.49;109651;1276;1018167;-75
2022/08/27 16:21:18;;;;;;;6.50;4.90;;;;;;;27.03;55.34;98223.20;109745;1276;1015835;-74
2022/08/27 16:26:51;;;;;;;;;;;;;;;;;;;;;
2022/08/27 16:32:00;;;;;;;8.30;6.20;;;;;;;26.74;55.58;98217.80;109715;1276;1017967;-75
2022/08/27 16:37:06;;;;;;;10.10;5.70;;;;;;;26.57;56.15;98223.38;109837;1276;1016810;-73
2022/08/27 16:42:44;;;;;;;7.20;5.40;;;;;;;26.37;56.21;98224.85;109916;1276;1018073;-75
2022/08/27 16:53:13;;;;;;;7.40;5.30;;;;;;;25.92;57.01;98220.86;109655;1276;1016473;-74
2022/08/27 16:58:36;;;;;;;7.00;4.80;;;;;;;25.75;57.46;98228.67;109784;1277;1016365;-74
2022/08/27 17:03:47;;;;;;;6.30;5.10;;;;;;;25.56;57.85;98226.94;109819;1276;1016513;-76
2022/08/27 17:09:34;;;;;;;6.90;4.60;;;;;;;25.39;58.15;98230.02;109631;1277;1016495;-73
2022/08/27 17:14:36;;;;;;;6.90;4.70;;;;;;;25.24;58.88;98230.01;109657;1276;1017356;-73
2022/08/27 17:20:23;;;;;;;11.70;7.40;;;;;;;25.14;59.52;98229.36;109615;1276;1016755;-75
2022/08/27 17:25:40;;;;;;;7.80;6.30;;;;;;;25.03;59.96;98236.85;109794;1277;1016236;-74
2022/08/27 17:30:45;;;;;;;6.60;4.90;;;;;;;24.89;60.63;98235.88;109740;1277;1016152;-75
2022/08/27 17:35:59;;;;;;;6.90;4.90;;;;;;;24.75;61.00;98240.71;109851;1276;1016460;-74
2022/08/27 17:41:08;;;;;;;8.10;6.30;;;;;;;24.60;61.24;98245.52;109610;1279;1016102;-74
2022/08/27 17:46:20;;;;;;;11.80;7.90;;;;;;;24.45;61.81;98251.39;109808;1277;1016024;-73
2022/08/27 17:51:29;;;;;;;10.10;5.90;;;;;;;24.33;62.54;98252.52;109821;1277;1016615;-73
2022/08/27 17:56:33;;;;;;;8.60;6.10;;;;;;;24.23;63.00;98253.86;109681;1277;1016492;-73
2022/08/27 18:01:40;;;;;;;7.30;5.60;;;;;;;24.17;63.55;98254.17;109719;1277;1016502;-74
2022/08/27 18:06:55;;;;;;;12.40;6.10;;;;;;;24.07;63.80;98252.31;109684;1277;1018374;-73
2022/08/27 18:12:02;;;;;;;10.90;7.90;;;;;;;24.00;64.33;98253.32;109764;1276;1018468;-73
2022/08/27 18:17:11;;;;;;;10.50;7.50;;;;;;;23.89;64.64;98253.47;109687;1277;1016578;-72
2022/08/27 18:22:14;;;;;;;;;;;;;;;23.78;65.20;98254.61;109864;1277;1016622;-74
2022/08/27 18:27:26;;;;;;;12.20;8.50;;;;;;;23.70;65.60;98251.95;109784;1276;1016670;-74
2022/08/27 18:32:38;;;;;;;18.10;10.20;;;;;;;23.62;66.12;98257.10;109853;1277;1017700;-78
2022/08/27 18:38:03;;;;;;;12.10;10.00;;;;;;;23.54;66.93;98259.27;109758;1277;1016672;-73
2022/08/27 18:43:44;;;;;;;12.00;9.20;;;;;;;23.43;67.44;98263.08;109693;1276;1016404;-74
2022/08/27 18:49:15;;;;;;;;;;;;;;;;;;;;;
2022/08/27 18:55:01;;;;;;;12.20;8.50;;;;;;;23.26;68.51;98264.13;109733;1278;1016388;-74
2022/08/27 19:00:26;;;;;;;10.30;8.20;;;;;;;23.20;68.92;98266.52;109662;1278;1016545;-74
2022/08/27 19:05:29;;;;;;;13.00;8.60;;;;;;;23.15;69.26;98272.99;109653;1278;1016482;-74
2022/08/27 19:10:31;;;;;;;12.20;8.30;;;;;;;23.11;69.66;98279.52;109975;1278;1016385;-74
2022/08/27 19:15:34;;;;;;;11.50;8.90;;;;;;;23.05;70.02;98284.71;109432;1278;1016576;-74
2022/08/27 19:20:47;;;;;;;9.80;7.80;;;;;;;23.01;70.25;98284.77;109560;1279;1016726;-74
2022/08/27 19:25:54;;;;;;;11.10;7.80;;;;;;;22.97;70.47;98286.46;109673;1278;1018698;-74
2022/08/27 19:30:59;;;;;;;10.70;9.10;;;;;;;22.93;70.82;98289.34;109658;1279;1018342;-74
2022/08/27 19:36:02;;;;;;;12.70;9.70;;;;;;;22.89;71.45;98290.02;109577;1279;1016761;-73
2022/08/27 19:41:04;;;;;;;17.50;10.00;;;;;;;22.83;71.77;98287.73;109499;1279;1016574;-74
2022/08/27 19:46:09;;;;;;;16.90;9.90;;;;;;;22.79;72.13;98287.23;109744;1278;1016912;-75
2022/08/27 19:51:21;;;;;;;15.20;10.50;;;;;;;22.77;72.57;98288.63;109598;1276;1018555;-74
2022/08/27 19:56:36;;;;;;;12.90;9.60;;;;;;;22.73;72.73;98297.59;109750;1277;1015888;-74
2022/08/27 20:01:54;;;;;;;12.30;9.00;;;;;;;22.71;73.00;98305.45;109636;1277;1017150;-74
2022/08/27 20:07:01;;;;;;;13.90;9.70;;;;;;;22.65;73.23;98302.21;109775;1276;1016861;-74
2022/08/27 20:12:04;;;;;;;17.90;10.90;;;;;;;22.53;73.55;98312.27;109836;1277;1017144;-74
2022/08/27 20:17:13;;;;;;;15.40;10.50;;;;;;;22.42;74.16;98310.33;109731;1276;1016470;-74
2022/08/27 20:22:17;;;;;;;16.20;11.00;;;;;;;22.35;74.82;98308.94;109851;1276;1016957;-74
2022/08/27 20:27:22;;;;;;;18.00;10.90;;;;;;;22.29;75.42;98306.22;109893;1277;1018827;-75
2022/08/27 20:32:29;;;;;;;19.50;12.50;;;;;;;22.22;75.67;98301.56;109818;1276;1020105;-74
2022/08/27 20:37:34;;;;;;;18.40;10.10;;;;;;;22.13;75.94;98308.90;109728;1276;1017722;-74
2022/08/27 20:42:43;;;;;;;16.30;11.00;;;;;;;21.99;76.49;98303.96;109769;1276;1016506;-74
2022/08/27 20:47:56;;;;;;;15.30;11.30;;;;;;;21.90;77.01;98300.82;109797;1277;1019819;-74
2022/08/27 20:53:11;;;;;;;13.40;10.60;;;;;;;21.85;77.64;98297.13;109945;1276;1016633;-75
2022/08/27 21:04:03;;;;;;;14.70;10.70;;;;;;;21.79;78.41;98297.14;109699;1276;1016362;-76
2022/08/27 21:09:15;;;;;;;15.70;10.80;;;;;;;21.74;78.81;98300.06;109781;1276;1016795;-73
2022/08/27 21:15:15;;;;;;;13.90;9.40;;;;;;;21.73;79.17;98291.17;109773;1276;1017209;-72
2022/08/27 21:20:18;;;;;;;16.20;10.80;;;;;;;21.68;79.27;98283.02;109709;1277;1016471;-73
2022/08/27 21:25:32;;;;;;;14.80;10.70;;;;;;;21.62;79.53;98280.79;109757;1276;1018422;-74
2022/08/27 21:30:47;;;;;;;;;;;;;;;;;;;;;
2022/08/27 21:35:57;;;;;;;19.70;12.20;;;;;;;21.47;80.23;98284.41;109775;1276;1016958;-73
2022/08/27 21:42:00;;;;;;;17.80;12.20;;;;;;;21.36;80.52;98283.52;109742;1276;1015887;-73
2022/08/27 21:47:16;;;;;;;16.80;11.90;;;;;;;21.26;80.75;98281.63;109759;1276;1016741;-74
2022/08/27 21:52:41;;;;;;;15.60;11.10;;;;;;;21.16;80.95;98286.64;109798;1277;1016495;-73
2022/08/27 21:58:04;;;;;;;18.00;12.30;;;;;;;21.05;81.40;98288.45;109772;1276;1018491;-73
2022/08/27 22:03:09;;;;;;;13.50;11.40;;;;;;;20.96;81.82;98286.41;109798;1276;1018337;-73
2022/08/27 22:08:48;;;;;;;;;;;;;;;;;;;;;
2022/08/27 22:13:52;;;;;;;16.10;11.10;;;;;;;20.79;82.42;98290.84;109643;1277;1017108;-74
2022/08/27 22:18:57;;;;;;;18.00;12.10;;;;;;;20.68;82.72;98290.61;109739;1277;1016231;-74
2022/08/27 22:24:11;;;;;;;18.00;12.00;;;;;;;20.60;83.02;98296.63;109785;1277;1016610;-73
2022/08/27 22:29:23;;;;;;;18.80;13.30;;;;;;;20.53;83.47;98298.15;109629;1277;1018842;-74
2022/08/27 22:35:14;;;;;;;17.10;11.90;;;;;;;20.44;83.67;98299.02;109798;1277;1016494;-73
2022/08/27 22:40:38;;;;;;;18.80;13.10;;;;;;;20.33;83.94;98289.15;109832;1277;1016658;-73
2022/08/27 22:45:41;;;;;;;18.90;13.40;;;;;;;20.26;84.51;98288.19;109740;1277;1016409;-74
2022/08/27 22:50:43;;;;;;;18.60;13.70;;;;;;;20.20;84.73;98292.59;109727;1277;1016627;-74
2022/08/27 22:55:49;;;;;;;16.60;12.70;;;;;;;20.13;85.06;98289.93;110102;1277;1016742;-74
2022/08/27 23:01:21;;;;;;;;;;;;;;;;;;;;;
2022/08/27 23:07:32;;;;;;;15.50;12.40;;;;;;;19.94;85.61;98292.58;109817;1278;1019691;-73
2022/08/27 23:12:55;;;;;;;19.50;13.60;;;;;;;19.86;86.12;98291.17;109719;1277;1016754;-73
2022/08/27 23:18:07;;;;;;;17.80;12.50;;;;;;;19.80;87.08;98288.97;109713;1278;1016300;-73
2022/08/27 23:24:09;;;;;;;;;;;;;;;;;;;;;
2022/08/27 23:29:34;;;;;;;19.50;13.70;;;;;;;19.67;87.84;98268.54;109772;1277;1016685;-73
2022/08/27 23:34:51;;;;;;;16.00;12.40;;;;;;;19.64;87.97;98269.89;109798;1277;1016750;-76
2022/08/27 23:39:59;;;;;;;14.10;10.10;;;;;;;19.61;87.99;98272.40;109815;1277;1016342;-73
2022/08/27 23:45:44;;;;;;;14.80;11.50;;;;;;;19.57;87.80;98268.77;109678;1277;1017146;-73
2022/08/27 23:50:50;;;;;;;12.80;9.40;;;;;;;19.54;87.69;98264.27;109718;1277;1019022;-73
2022/08/27 23:56:30;;;;;;;13.60;9.40;;;;;;;19.48;87.93;98266.58;109729;1277;1018623;-73
